• Join FlightAware (Why Join?)
  • Login
  • US Flag 
07:44AM EST


 

Airport Tracker/Info


-or-


 

Live Flight TrackerFlight Track Log ✈ UAL3851 ✈ 08-Sep-2013 ✈ KLEX - KORD

Flight Track Log - Related Links

Times and Time Zones

All times are in EDT time to prevent confusion due to time zone crossing. See the UAL3851 flight status page for this flight to view local times or setup timezone preferences in your user account.

Time Position Orientation Groundspeed Altitude Reporting Facility
EDT Latitude Longitude Course Direction KTS MPH feet Rate Location/Type
10:14AM 38.0114 -84.6319 230° Southwest 162 186 2,100  Level Indianapolis Center
10:15AM 37.9700 -84.6936 230° Southwest 210 242 4,200 1,860 Climbing Indianapolis Center
10:16AM 37.9419 -84.7656 244° Southwest 220 253 6,000 1,620 Climbing Indianapolis Center
10:17AM 37.9086 -84.8483 243° Southwest 253 291 7,600 1,680 Climbing Indianapolis Center
10:18AM 37.8889 -84.9414 255° West 277 319 9,500 1,320 Climbing Indianapolis Center
10:19AM 37.9094 -85.0389 285° West 284 327 10,400 780 Climbing Indianapolis Center
10:20AM 37.9503 -85.1392 297° West 314 361 11,200 840 Climbing Indianapolis Center
10:21AM 37.9908 -85.2531 294° West 339 390 12,200 960 Climbing Indianapolis Center
10:22AM 38.0292 -85.3656 293° West 346 398 13,300 1,080 Climbing Indianapolis Center
10:23AM 38.0722 -85.4758 296° West 350 403 14,500 1,200 Climbing Indianapolis Center
10:24AM 38.1828 -85.5150 344° North 344 396 15,900 1,140 Climbing Indianapolis Center
10:25AM 38.2822 -85.5214 357° North 353 406 16,900 900 Climbing Indianapolis Center
10:26AM 38.3814 -85.5292 356° North 357 411 17,800 960 Climbing Indianapolis Center
10:27AM 38.4814 -85.5358 357° North 359 413 18,900 960 Climbing Indianapolis Center
10:28AM 38.5814 -85.5431 357° North 359 413 19,900 960 Climbing Indianapolis Center
10:29AM 38.6908 -85.5511 357° North 365 420 20,900 840 Climbing Indianapolis Center
10:30AM 38.7942 -85.5583 357° North 370 426 21,700 720 Climbing Indianapolis Center
10:31AM 38.8967 -85.5658 357° North 372 428 22,500 720 Climbing Indianapolis Center
10:32AM 39.0017 -85.5731 357° North 377 434 23,300 840 Climbing Indianapolis Center
10:33AM 39.1256 -85.5814 357° North 374 430 24,300 900 Climbing Indianapolis Center
10:34AM 39.2303 -85.5892 357° North 377 434 25,200 840 Climbing Indianapolis Center
10:36AM 39.3331 -85.5964 357° North 375 432 26,100 780 Climbing Indianapolis Center
10:37AM 39.4347 -85.6033 357° North 370 426 26,800 600 Climbing Indianapolis Center
10:38AM 39.5381 -85.6106 357° North 373 429 27,400 540 Climbing Indianapolis Center
10:39AM 39.6633 -85.6194 357° North 377 434 28,000 240 Climbing Indianapolis Center
10:40AM 39.7706 -85.6272 357° North 385 443 28,000  Level Indianapolis Center
10:41AM 39.8828 -85.6347 357° North 399 459 28,000 -300 Level Indianapolis Center
10:42AM 39.9972 -85.6433 357° North 412 474 27,400 -720 Descending Indianapolis Center
10:43AM 40.1189 -85.6511 357° North 430 495 26,600 -1,020 Descending Indianapolis Center
10:44AM 40.2617 -85.6633 356° North 432 497 25,400 -1,080 Descending Indianapolis Center
10:45AM 40.3703 -85.6986 346° North 423 487 24,400 -840 Descending Indianapolis Center
10:46AM 40.4511 -85.8069 314° West 425 489 23,800 -840 Descending Chicago Center
10:47AM 40.5286 -85.9225 311° West 425 489 22,800 -900 Descending Chicago Center
10:48AM 40.6047 -86.0367 311° West 421 484 22,000 -420 Descending Chicago Center
10:49AM 40.6814 -86.1517 311° West 419 482 22,000  Level Chicago Center
10:50AM 40.7572 -86.2658 311° West 419 482 22,000  Level Chicago Center
10:51AM 40.8525 -86.4103 311° West 425 489 22,000  Level Chicago Center
10:52AM 40.9292 -86.5272 311° West 424 488 22,000 -180 Level Chicago Center
10:53AM 41.0067 -86.6447 311° West 425 489 21,700 -1,020 Descending Chicago Center
10:54AM 41.0811 -86.7592 311° West 423 487 20,000 -1,800 Descending Chicago Center
10:55AM 41.1553 -86.8706 312° West 414 476 18,000 -2,520 Descending Chicago Center
10:56AM 41.2389 -87.0000 311° West 393 452 14,800 -2,760 Descending Chicago Center
10:57AM 41.3064 -87.1042 311° West 378 435 12,400 -1,860 Descending Chicago Center
10:58AM 41.3725 -87.2031 312° West 364 419 11,000 -720 Descending Chicago Center
10:59AM 41.4469 -87.2917 318° Northwest 362 417 11,000  Level Chicago Center
11:00AM 41.5117 -87.3658 319° Northwest 314 361 11,000  Level Chicago Center
11:01AM 41.5844 -87.4486 320° Northwest 289 333 11,000  Level Chicago Center
11:02AM 41.6478 -87.5167 321° Northwest 294 338 11,000 -120 Level Chicago Center
11:03AM 41.7089 -87.5878 319° Northwest 293 337 10,800 -780 Descending Chicago Center
11:04AM 41.7700 -87.6564 320° Northwest 292 336 9,500 -1,260 Descending Chicago Center
11:05AM 41.8231 -87.7169 320° Northwest 258 297 8,300 -1,260 Descending Chicago Center
11:06AM 41.8758 -87.7911 314° West 235 270 7,000 -780 Descending Chicago Center
11:07AM 41.8833 -87.8333 283° West 201 231 7,100  Climbing Chicago TRACON
11:08AM 41.8833 -87.9000 270° West 196 226 7,000 -60 Descending Chicago TRACON
11:09AM 41.8833 -87.9833 270° West 201 231 7,000 -300 Level Chicago TRACON
11:10AM 41.8833 -88.0500 270° West 190 219 6,400 -960 Descending Chicago TRACON
11:11AM 41.8833 -88.1167 270° West 188 216 5,200 -900 Descending Chicago TRACON
11:12AM 41.8836 -88.1561 271° West 189 217 5,000 -180 Descending Chicago Center
11:13AM 41.8833 -88.2261 270° West 189 217 5,000 -240 Level Chicago Center
11:14AM 41.9022 -88.2839 294° West 197 227 4,600 -540 Descending Chicago Center
11:15AM 41.9553 -88.2917 354° North 195 224 4,000 -300 Descending Chicago Center
11:16AM 41.9669 -88.2372 74° East 189 217 4,000  Level Chicago Center
11:17AM 41.9681 -88.1753 89° East 173 199 4,000 -480 Level Chicago Center
11:18AM 41.9681 -88.0983 90° East 172 198 3,100 -900 Descending Chicago Center
11:19AM 41.9686 -88.0383 89° East 168 193 2,200 -780 Descending Chicago Center
11:20AM 41.9667 -87.9833 93° East 134 154 1,500 -660 Descending Chicago TRACON